N244BD RPMO-RPME

Flight info

Callsign N244BD
Flight time 1h 13m
Altitude 3500
Route VFR
Aircraft C172/L-SGO/C

Departure

Time 2026-04-25 20:26
Airport Labo Airport (RPMO)

Arrival

Time 2026-04-25 21:39
Airport Bancasi Airport (RPME)
Time Latitude Longitude Altitude Speed Heading
2026-04-25 20:08 8.18165 123.84465 60 ft 0 kts 131°
2026-04-25 20:15 8.18159 123.84469 60 ft 2 kts 175°
2026-04-25 20:15 8.18132 123.84456 59 ft 5 kts 223°
2026-04-25 20:16 8.18107 123.84431 59 ft 5 kts 222°
2026-04-25 20:16 8.18085 123.84412 56 ft 3 kts 226°
2026-04-25 20:16 8.18080 123.84406 60 ft 0 kts 229°
2026-04-25 20:16 8.18070 123.84391 57 ft 6 kts 250°
2026-04-25 20:17 8.18072 123.84354 61 ft 2 kts 271°
2026-04-25 20:17 8.18072 123.84351 61 ft 0 kts 269°
2026-04-25 20:20 8.18071 123.84344 61 ft 5 kts 266°
2026-04-25 20:20 8.18054 123.84279 58 ft 15 kts 219°
2026-04-25 20:21 8.17935 123.84207 56 ft 25 kts 214°
2026-04-25 20:21 8.17766 123.84090 55 ft 32 kts 215°
2026-04-25 20:21 8.17589 123.83965 60 ft 30 kts 216°
2026-04-25 20:21 8.17431 123.83853 63 ft 25 kts 216°
2026-04-25 20:22 8.17307 123.83762 67 ft 19 kts 218°
2026-04-25 20:22 8.17274 123.83737 67 ft 17 kts 215°
2026-04-25 20:22 8.17183 123.83699 69 ft 9 kts 95°
2026-04-25 20:22 8.17193 123.83717 69 ft 0 kts 31°
2026-04-25 20:25 8.17270 123.83761 63 ft 36 kts 33°
2026-04-25 20:25 8.17613 123.83977 89 ft 73 kts 29°
2026-04-25 20:25 8.18086 123.84270 196 ft 85 kts 30°
2026-04-25 20:25 8.18591 123.84555 390 ft 85 kts 27°
2026-04-25 20:26 8.19123 123.84831 561 ft 87 kts 25°
2026-04-25 20:26 8.19684 123.85091 726 ft 88 kts 23°
2026-04-25 20:26 8.20161 123.85480 860 ft 93 kts 60°
2026-04-25 20:26 8.20195 123.86127 1010 ft 95 kts 112°
2026-04-25 20:27 8.19648 123.86461 1105 ft 104 kts 185°
2026-04-25 20:27 8.18908 123.86239 1041 ft 119 kts 197°
2026-04-25 20:27 8.18137 123.86013 1138 ft 114 kts 190°
2026-04-25 20:27 8.17488 123.86255 1309 ft 108 kts 111°
2026-04-25 20:28 8.17642 123.86991 1405 ft 108 kts 70°
2026-04-25 20:28 8.17721 123.87771 1424 ft 117 kts 95°
2026-04-25 20:28 8.17625 123.88616 1413 ft 125 kts 96°
2026-04-25 20:28 8.17545 123.89474 1523 ft 120 kts 94°
2026-04-25 20:29 8.17497 123.90046 1539 ft 123 kts 95°
2026-04-25 20:29 8.17392 123.90916 1526 ft 127 kts 96°
2026-04-25 20:29 8.17279 123.91800 1510 ft 129 kts 97°
2026-04-25 20:29 8.17188 123.92722 1478 ft 132 kts 92°
2026-04-25 20:30 8.17186 123.93644 1405 ft 135 kts 89°
2026-04-25 20:30 8.17176 123.94605 1316 ft 137 kts 91°
2026-04-25 20:30 8.17134 123.95555 1266 ft 136 kts 92°
2026-04-25 20:30 8.17056 123.96522 1173 ft 138 kts 95°
2026-04-25 20:31 8.16985 123.97470 1167 ft 134 kts 92°
2026-04-25 20:31 8.16947 123.98407 1141 ft 134 kts 90°
2026-04-25 20:31 8.16963 123.99348 1112 ft 133 kts 87°
2026-04-25 20:31 8.17068 124.00249 1195 ft 125 kts 71°
2026-04-25 20:32 8.17490 124.01009 1225 ft 125 kts 59°
2026-04-25 20:32 8.17866 124.01793 1282 ft 124 kts 67°
2026-04-25 20:32 8.18174 124.02603 1350 ft 122 kts 71°
2026-04-25 20:32 8.18400 124.03412 1478 ft 117 kts 75°
2026-04-25 20:33 8.18604 124.04221 1540 ft 119 kts 75°
2026-04-25 20:33 8.18795 124.05014 1690 ft 114 kts 76°
2026-04-25 20:33 8.18992 124.05789 1799 ft 114 kts 74°
2026-04-25 20:33 8.19116 124.06305 1863 ft 115 kts 77°
2026-04-25 20:34 8.19327 124.07415 1789 ft 129 kts 81°
2026-04-25 20:34 8.19451 124.08339 1648 ft 137 kts 82°
2026-04-25 20:34 8.19591 124.09305 1451 ft 144 kts 81°
2026-04-25 20:34 8.19729 124.10309 1287 ft 143 kts 81°
2026-04-25 20:35 8.20058 124.11219 1191 ft 140 kts 59°
2026-04-25 20:35 8.20475 124.12070 1239 ft 130 kts 65°
2026-04-25 20:35 8.20841 124.12885 1276 ft 127 kts 65°
2026-04-25 20:35 8.21198 124.13712 1232 ft 130 kts 65°
2026-04-25 20:36 8.21357 124.14065 1200 ft 132 kts 65°
2026-04-25 20:36 8.21381 124.14117 1197 ft 132 kts 64°
2026-04-25 20:36 8.21775 124.14947 1189 ft 130 kts 64°
2026-04-25 20:36 8.22171 124.15770 1160 ft 131 kts 62°
2026-04-25 20:37 8.22608 124.16583 1114 ft 132 kts 60°
2026-04-25 20:37 8.23060 124.17401 1046 ft 134 kts 61°
2026-04-25 20:37 8.23459 124.18245 1014 ft 133 kts 66°
2026-04-25 20:37 8.23818 124.19110 954 ft 134 kts 68°
2026-04-25 20:38 8.24161 124.19974 977 ft 129 kts 68°
2026-04-25 20:38 8.24524 124.20792 971 ft 130 kts 63°
2026-04-25 20:38 8.24984 124.21585 953 ft 128 kts 58°
2026-04-25 20:38 8.25364 124.22348 1120 ft 117 kts 65°
2026-04-25 20:39 8.25698 124.23092 1188 ft 118 kts 66°
2026-04-25 20:39 8.26020 124.23868 1265 ft 118 kts 68°
2026-04-25 20:39 8.26312 124.24609 1406 ft 113 kts 68°
2026-04-25 20:39 8.26508 124.25101 1500 ft 110 kts 68°
2026-04-25 20:40 8.26889 124.26093 1534 ft 120 kts 68°
2026-04-25 20:40 8.27197 124.26890 1559 ft 122 kts 70°
2026-04-25 20:40 8.27457 124.27700 1594 ft 123 kts 73°
2026-04-25 20:40 8.27679 124.28575 1499 ft 130 kts 76°
2026-04-25 20:41 8.27878 124.29442 1521 ft 127 kts 76°
2026-04-25 20:41 8.28050 124.30307 1619 ft 117 kts 79°
2026-04-25 20:41 8.28232 124.31042 1894 ft 102 kts 71°
2026-04-25 20:41 8.28460 124.31707 2080 ft 99 kts 69°
2026-04-25 20:42 8.28701 124.32338 2252 ft 96 kts 67°
2026-04-25 20:42 8.28980 124.32962 2366 ft 100 kts 64°
2026-04-25 20:42 8.29295 124.33633 2399 ft 110 kts 64°
2026-04-25 20:42 8.29641 124.34325 2499 ft 109 kts 62°
2026-04-25 20:43 8.29994 124.34996 2614 ft 108 kts 60°
2026-04-25 20:43 8.30385 124.35648 2712 ft 109 kts 57°
2026-04-25 20:43 8.30771 124.36307 2823 ft 108 kts 60°
2026-04-25 20:43 8.31138 124.36981 2918 ft 110 kts 62°
2026-04-25 20:44 8.31498 124.37658 3006 ft 108 kts 62°
2026-04-25 20:44 8.31869 124.38350 3009 ft 117 kts 60°
2026-04-25 20:44 8.32273 124.39093 2972 ft 122 kts 62°
2026-04-25 20:44 8.32672 124.39845 2947 ft 125 kts 61°
2026-04-25 20:45 8.33091 124.40614 2929 ft 128 kts 60°
2026-04-25 20:45 8.33557 124.41399 2854 ft 131 kts 59°
2026-04-25 20:45 8.34006 124.42174 2923 ft 124 kts 58°
2026-04-25 20:45 8.34510 124.42885 2910 ft 126 kts 52°
2026-04-25 20:46 8.35016 124.43606 2911 ft 125 kts 57°
2026-04-25 20:46 8.35474 124.44379 2854 ft 130 kts 60°
2026-04-25 20:46 8.35912 124.45170 2803 ft 130 kts 62°
2026-04-25 20:46 8.36338 124.45981 2768 ft 129 kts 61°
2026-04-25 20:47 8.36764 124.46783 2752 ft 129 kts 62°
2026-04-25 20:47 8.37194 124.47573 2698 ft 129 kts 62°
2026-04-25 20:47 8.37611 124.48373 2672 ft 128 kts 62°
2026-04-25 20:47 8.38048 124.49163 2625 ft 129 kts 61°
2026-04-25 20:48 8.38474 124.49961 2798 ft 128 kts 60°
2026-04-25 20:48 8.38895 124.50732 3237 ft 121 kts 60°
2026-04-25 20:48 8.39335 124.51485 3465 ft 130 kts 61°
2026-04-25 20:48 8.39835 124.52309 3254 ft 144 kts 59°
2026-04-25 20:49 8.40339 124.53198 3081 ft 146 kts 62°
2026-04-25 20:49 8.40860 124.54087 2819 ft 147 kts 59°
2026-04-25 20:49 8.41381 124.54969 2553 ft 146 kts 60°
2026-04-25 20:49 8.41898 124.55853 2281 ft 146 kts 60°
2026-04-25 20:50 8.42403 124.56736 2041 ft 145 kts 61°
2026-04-25 20:50 8.42884 124.57624 1820 ft 144 kts 62°
2026-04-25 20:50 8.43328 124.58520 1616 ft 143 kts 65°
2026-04-25 20:50 8.43721 124.59446 1380 ft 144 kts 68°
2026-04-25 20:51 8.44116 124.60360 1251 ft 137 kts 66°
2026-04-25 20:51 8.44480 124.61210 1294 ft 128 kts 66°
2026-04-25 20:51 8.44819 124.62005 1405 ft 120 kts 68°
2026-04-25 20:51 8.45123 124.62783 1507 ft 118 kts 69°
2026-04-25 20:52 8.45416 124.63540 1646 ft 114 kts 67°
2026-04-25 20:52 8.45627 124.64023 1721 ft 114 kts 66°
2026-04-25 20:52 8.46089 124.65020 1719 ft 120 kts 66°
2026-04-25 20:52 8.46426 124.65790 1752 ft 121 kts 66°
2026-04-25 20:53 8.46785 124.66562 1792 ft 120 kts 65°
2026-04-25 20:53 8.47096 124.67351 1807 ft 122 kts 70°
2026-04-25 20:53 8.47420 124.68148 1832 ft 123 kts 67°
2026-04-25 20:53 8.47764 124.68976 1674 ft 136 kts 67°
2026-04-25 20:54 8.48144 124.69866 1503 ft 138 kts 68°
2026-04-25 20:54 8.48509 124.70754 1404 ft 134 kts 68°
2026-04-25 20:54 8.48886 124.71616 1311 ft 134 kts 65°
2026-04-25 20:54 8.49292 124.72457 1240 ft 132 kts 64°
2026-04-25 20:55 8.49700 124.73276 1219 ft 129 kts 62°
2026-04-25 20:55 8.50304 124.73847 1333 ft 119 kts 14°
2026-04-25 20:55 8.51119 124.73987 1387 ft 118 kts 13°
2026-04-25 20:55 8.51929 124.74163 1434 ft 119 kts 15°
2026-04-25 20:56 8.52731 124.74358 1493 ft 118 kts 15°
2026-04-25 20:56 8.53536 124.74540 1561 ft 118 kts 13°
2026-04-25 20:56 8.54343 124.74679 1643 ft 117 kts 11°
2026-04-25 20:56 8.55162 124.74812 1667 ft 121 kts 12°
2026-04-25 20:57 8.55990 124.74972 1697 ft 122 kts 13°
2026-04-25 20:57 8.56852 124.75130 1617 ft 130 kts 11°
2026-04-25 20:57 8.57732 124.75268 1607 ft 129 kts 10°
2026-04-25 20:57 8.58643 124.75418 1469 ft 135 kts 10°
2026-04-25 20:58 8.59591 124.75497 1366 ft 137 kts
2026-04-25 20:58 8.60537 124.75457 1294 ft 136 kts 358°
2026-04-25 20:58 8.61479 124.75401 1213 ft 136 kts 358°
2026-04-25 20:58 8.62452 124.75338 1034 ft 139 kts 359°
2026-04-25 20:59 8.63395 124.75318 1051 ft 131 kts
2026-04-25 20:59 8.64265 124.75336 1179 ft 123 kts
2026-04-25 20:59 8.65138 124.75312 1206 ft 126 kts 360°
2026-04-25 20:59 8.66003 124.75284 1302 ft 124 kts
2026-04-25 21:00 8.66568 124.75280 1362 ft 122 kts
2026-04-25 21:00 8.67129 124.75294 1409 ft 122 kts
2026-04-25 21:00 8.69267 124.75339 1880 ft 109 kts
2026-04-25 21:01 8.70038 124.75373 1944 ft 117 kts
2026-04-25 21:01 8.70887 124.75430 1940 ft 124 kts
2026-04-25 21:01 8.71745 124.75503 1995 ft 125 kts
2026-04-25 21:01 8.72609 124.75562 2067 ft 126 kts
2026-04-25 21:02 8.73495 124.75611 2065 ft 128 kts
2026-04-25 21:02 8.74393 124.75659 2066 ft 130 kts
2026-04-25 21:02 8.75301 124.75711 2066 ft 131 kts
2026-04-25 21:02 8.76205 124.75758 2065 ft 130 kts
2026-04-25 21:03 8.77103 124.75801 2065 ft 128 kts
2026-04-25 21:03 8.77994 124.75842 2067 ft 129 kts
2026-04-25 21:03 8.78895 124.75884 2065 ft 130 kts
2026-04-25 21:03 8.79788 124.75922 2062 ft 127 kts
2026-04-25 21:04 8.80668 124.75960 2061 ft 126 kts
2026-04-25 21:04 8.81547 124.75997 2060 ft 126 kts
2026-04-25 21:04 8.82421 124.76033 2059 ft 126 kts
2026-04-25 21:04 8.83297 124.76066 2058 ft 125 kts
2026-04-25 21:05 8.84167 124.76100 2061 ft 126 kts
2026-04-25 21:05 8.85048 124.76134 2062 ft 127 kts
2026-04-25 21:05 8.85928 124.76170 2064 ft 126 kts
2026-04-25 21:05 8.86806 124.76205 2068 ft 129 kts
2026-04-25 21:06 8.87731 124.76239 2069 ft 132 kts
2026-04-25 21:06 8.88649 124.76272 2067 ft 132 kts
2026-04-25 21:06 8.89553 124.76304 2066 ft 131 kts
2026-04-25 21:06 8.89857 124.76315 2066 ft 130 kts
2026-04-25 21:07 8.91350 124.76357 2061 ft 128 kts
2026-04-25 21:07 8.92235 124.76379 2060 ft 126 kts
2026-04-25 21:07 8.93110 124.76398 2058 ft 126 kts
2026-04-25 21:07 8.93985 124.76417 2058 ft 126 kts
2026-04-25 21:08 8.94861 124.76437 2057 ft 126 kts
2026-04-25 21:08 8.95735 124.76457 2056 ft 125 kts
2026-04-25 21:08 8.96602 124.76491 2054 ft 123 kts 12°
2026-04-25 21:08 8.97251 124.76975 2053 ft 118 kts 57°
2026-04-25 21:09 8.97795 124.78544 2055 ft 119 kts 75°
2026-04-25 21:09 8.98018 124.79355 2054 ft 120 kts 74°
2026-04-25 21:09 8.98234 124.80149 2053 ft 114 kts 75°
2026-04-25 21:10 8.98441 124.80901 2042 ft 109 kts 73°
2026-04-25 21:10 8.98876 124.81451 2129 ft 101 kts 23°
2026-04-25 21:10 8.99533 124.81241 2156 ft 110 kts 310°
2026-04-25 21:10 8.99672 124.80516 2240 ft 108 kts 260°
2026-04-25 21:11 8.99388 124.79800 2232 ft 112 kts 234°
2026-04-25 21:11 8.98837 124.79279 2295 ft 108 kts 204°
2026-04-25 21:11 8.98136 124.79244 2335 ft 102 kts 150°
2026-04-25 21:11 8.97812 124.79766 2439 ft 92 kts 88°
2026-04-25 21:12 8.97944 124.80437 2392 ft 98 kts 81°
2026-04-25 21:12 8.98008 124.81105 2471 ft 95 kts 83°
2026-04-25 21:12 8.98158 124.81759 2510 ft 94 kts 72°
2026-04-25 21:12 8.98222 124.81959 2601 ft 87 kts 72°
2026-04-25 21:13 8.98550 124.82876 2729 ft 87 kts 67°
2026-04-25 21:13 8.98814 124.83413 2886 ft 89 kts 62°
2026-04-25 21:13 8.99049 124.84020 2928 ft 92 kts 78°
2026-04-25 21:13 8.99120 124.84635 3161 ft 85 kts 82°
2026-04-25 21:14 8.99296 124.85227 3268 ft 89 kts 69°
2026-04-25 21:14 8.99408 124.85832 3397 ft 90 kts 96°
2026-04-25 21:14 8.99227 124.86420 3499 ft 94 kts 103°
2026-04-25 21:14 8.99076 124.87056 3714 ft 87 kts 100°
2026-04-25 21:15 8.99018 124.87682 3778 ft 97 kts 87°
2026-04-25 21:15 8.99135 124.88341 3986 ft 89 kts 72°
2026-04-25 21:15 8.99451 124.88889 4083 ft 96 kts 57°
2026-04-25 21:15 8.99501 124.89511 4158 ft 99 kts 122°
2026-04-25 21:16 8.98863 124.89860 4258 ft 99 kts 144°
2026-04-25 21:16 8.98408 124.90337 4404 ft 96 kts 119°
2026-04-25 21:16 8.98044 124.90892 4603 ft 93 kts 123°
2026-04-25 21:16 8.97596 124.91397 4670 ft 103 kts 131°
2026-04-25 21:17 8.97046 124.91862 4789 ft 105 kts 141°
2026-04-25 21:17 8.96413 124.92216 4934 ft 104 kts 149°
2026-04-25 21:17 8.95966 124.92447 4903 ft 111 kts 142°
2026-04-25 21:17 8.95371 124.93312 4769 ft 125 kts 113°
2026-04-25 21:18 8.95089 124.93845 4589 ft 134 kts 120°
2026-04-25 21:18 8.94503 124.94603 4370 ft 139 kts 128°
2026-04-25 21:18 8.93865 124.95299 4329 ft 131 kts 130°
2026-04-25 21:18 8.93217 124.96001 4005 ft 142 kts 129°
2026-04-25 21:19 8.92578 124.96782 3702 ft 143 kts 126°
2026-04-25 21:19 8.91967 124.97582 3426 ft 143 kts 125°
2026-04-25 21:19 8.91352 124.98372 3160 ft 143 kts 126°
2026-04-25 21:19 8.90740 124.99162 2919 ft 142 kts 125°
2026-04-25 21:20 8.90144 124.99958 2700 ft 141 kts 124°
2026-04-25 21:20 8.89762 125.00488 2551 ft 141 kts 123°
2026-04-25 21:20 8.89052 125.01578 2313 ft 139 kts 121°
2026-04-25 21:20 8.88531 125.02408 2183 ft 138 kts 120°
2026-04-25 21:21 8.88039 125.03244 1996 ft 139 kts 118°
2026-04-25 21:21 8.87562 125.04076 1838 ft 138 kts 119°
2026-04-25 21:21 8.87036 125.04904 1674 ft 139 kts 121°
2026-04-25 21:21 8.86537 125.05725 1475 ft 139 kts 120°
2026-04-25 21:22 8.86026 125.06558 1323 ft 139 kts 120°
2026-04-25 21:22 8.85503 125.07373 1193 ft 137 kts 122°
2026-04-25 21:22 8.84992 125.08176 1103 ft 135 kts 120°
2026-04-25 21:22 8.84536 125.08991 1060 ft 131 kts 114°
2026-04-25 21:23 8.84280 125.09864 1018 ft 130 kts 96°
2026-04-25 21:23 8.84251 125.10775 980 ft 129 kts 89°
2026-04-25 21:23 8.84281 125.11664 1012 ft 124 kts 85°
2026-04-25 21:23 8.84368 125.12516 1062 ft 122 kts 82°
2026-04-25 21:24 8.84479 125.13371 1074 ft 121 kts 81°
2026-04-25 21:24 8.84679 125.14190 1129 ft 119 kts 69°
2026-04-25 21:24 8.85107 125.14916 1157 ft 121 kts 55°
2026-04-25 21:24 8.85619 125.15564 1254 ft 116 kts 52°
2026-04-25 21:25 8.86144 125.16178 1348 ft 115 kts 49°
2026-04-25 21:25 8.86678 125.16778 1437 ft 115 kts 49°
2026-04-25 21:25 8.87283 125.17295 1566 ft 117 kts 33°
2026-04-25 21:25 8.88011 125.17691 1688 ft 120 kts 30°
2026-04-25 21:26 8.88768 125.18070 1797 ft 124 kts 32°
2026-04-25 21:26 8.89503 125.18500 1788 ft 129 kts 35°
2026-04-25 21:26 8.90277 125.18925 1986 ft 124 kts 28°
2026-04-25 21:26 8.91083 125.19239 1998 ft 126 kts 14°
2026-04-25 21:27 8.91995 125.19196 1939 ft 138 kts 355°
2026-04-25 21:27 8.92947 125.19051 1881 ft 138 kts 353°
2026-04-25 21:27 8.93898 125.18859 1769 ft 142 kts 351°
2026-04-25 21:27 8.94874 125.18672 1613 ft 142 kts 352°
2026-04-25 21:28 8.95848 125.18471 1465 ft 142 kts 351°
2026-04-25 21:28 8.96802 125.18277 1407 ft 139 kts 350°
2026-04-25 21:28 8.97744 125.18016 1266 ft 143 kts 344°
2026-04-25 21:28 8.98685 125.17680 1156 ft 140 kts 343°
2026-04-25 21:29 8.99531 125.17680 1458 ft 109 kts 26°
2026-04-25 21:29 9.00154 125.18122 1585 ft 113 kts 41°
2026-04-25 21:29 9.00767 125.18614 1741 ft 113 kts 40°
2026-04-25 21:29 9.01325 125.19129 1921 ft 104 kts 53°
2026-04-25 21:30 9.01697 125.19770 2075 ft 108 kts 65°
2026-04-25 21:30 9.02003 125.20476 2173 ft 111 kts 71°
2026-04-25 21:30 9.02066 125.21232 2269 ft 111 kts 97°
2026-04-25 21:30 9.01984 125.21766 2243 ft 118 kts 96°
2026-04-25 21:31 9.01834 125.22870 2276 ft 121 kts 98°
2026-04-25 21:31 9.01683 125.23720 2237 ft 125 kts 101°
2026-04-25 21:31 9.01509 125.24600 2163 ft 127 kts 102°
2026-04-25 21:31 9.01291 125.25471 2103 ft 129 kts 103°
2026-04-25 21:32 9.01072 125.26350 1985 ft 132 kts 104°
2026-04-25 21:32 9.00816 125.27233 1896 ft 131 kts 106°
2026-04-25 21:32 9.00538 125.28121 1818 ft 130 kts 106°
2026-04-25 21:32 9.00265 125.28986 1760 ft 129 kts 106°
2026-04-25 21:33 9.00009 125.29857 1694 ft 129 kts 104°
2026-04-25 21:33 8.99762 125.30705 1664 ft 127 kts 108°
2026-04-25 21:33 8.99533 125.31573 1559 ft 130 kts 98°
2026-04-25 21:33 8.99405 125.32486 1464 ft 130 kts 98°
2026-04-25 21:34 8.99243 125.33387 1363 ft 132 kts 100°
2026-04-25 21:34 8.99040 125.34293 1264 ft 132 kts 104°
2026-04-25 21:34 8.98798 125.35189 1270 ft 132 kts 107°
2026-04-25 21:34 8.98493 125.36044 1083 ft 128 kts 110°
2026-04-25 21:35 8.98155 125.36838 1076 ft 112 kts 113°
2026-04-25 21:35 8.97862 125.37500 1211 ft 91 kts 109°
2026-04-25 21:35 8.97628 125.38079 1331 ft 87 kts 111°
2026-04-25 21:35 8.97391 125.38596 1571 ft 79 kts 111°
2026-04-25 21:36 8.97225 125.39141 1656 ft 83 kts 101°
2026-04-25 21:36 8.97148 125.39738 1860 ft 80 kts 87°
2026-04-25 21:36 8.97227 125.40279 1952 ft 82 kts 79°
2026-04-25 21:36 8.97328 125.40864 2095 ft 88 kts 75°
2026-04-25 21:37 8.97549 125.41449 2294 ft 88 kts 71°
2026-04-25 21:37 8.97653 125.41847 2362 ft 91 kts 81°
2026-04-25 21:37 8.97647 125.42677 2218 ft 94 kts 106°
2026-04-25 21:37 8.97446 125.43328 1882 ft 99 kts 109°
2026-04-25 21:38 8.97194 125.43971 1540 ft 98 kts 112°
2026-04-25 21:38 8.96898 125.44590 1229 ft 96 kts 115°
2026-04-25 21:38 8.96595 125.45183 933 ft 93 kts 116°
2026-04-25 21:38 8.96292 125.45716 674 ft 89 kts 120°
2026-04-25 21:39 8.95983 125.46253 400 ft 87 kts 117°
2026-04-25 21:39 8.95708 125.46775 158 ft 80 kts 116°
2026-04-25 21:39 8.95475 125.47231 44 ft 61 kts 116°
2026-04-25 21:39 8.95322 125.47553 39 ft 42 kts 116°
2026-04-25 21:40 8.95209 125.47781 39 ft 32 kts 117°
2026-04-25 21:40 8.95116 125.47963 39 ft 26 kts 118°
2026-04-25 21:40 8.95038 125.48080 38 ft 14 kts 142°
2026-04-25 21:40 8.94974 125.48109 38 ft 6 kts 180°
2026-04-25 21:41 8.94961 125.48106 39 ft 0 kts 203°
2026-04-25 21:41 8.94947 125.48088 39 ft 6 kts 268°
2026-04-25 21:41 8.94957 125.48059 39 ft 0 kts 294°
2026-04-25 21:41 8.94959 125.48055 39 ft 0 kts 298°